sensor_id;sensor_type;location;lat;lon;timestamp;temperature;humidity
72468;SHT30;60626;43.582;1.470;2023-02-15T00:02:00;12.60;63.42
72468;SHT30;60626;43.582;1.470;2023-02-15T00:04:27;12.59;62.98
72468;SHT30;60626;43.582;1.470;2023-02-15T00:07:17;12.62;63.60
72468;SHT30;60626;43.582;1.470;2023-02-15T00:09:46;12.63;63.59
72468;SHT30;60626;43.582;1.470;2023-02-15T00:12:13;12.63;63.27
72468;SHT30;60626;43.582;1.470;2023-02-15T00:14:40;12.59;63.93
72468;SHT30;60626;43.582;1.470;2023-02-15T00:17:06;12.62;62.59
72468;SHT30;60626;43.582;1.470;2023-02-15T00:19:33;12.60;63.42
72468;SHT30;60626;43.582;1.470;2023-02-15T00:22:00;12.60;63.65
72468;SHT30;60626;43.582;1.470;2023-02-15T00:24:26;12.63;62.90
72468;SHT30;60626;43.582;1.470;2023-02-15T00:26:53;12.60;63.28
72468;SHT30;60626;43.582;1.470;2023-02-15T00:29:20;12.60;63.61
72468;SHT30;60626;43.582;1.470;2023-02-15T00:31:47;12.59;63.57
72468;SHT30;60626;43.582;1.470;2023-02-15T00:34:23;12.59;63.52
72468;SHT30;60626;43.582;1.470;2023-02-15T00:36:50;12.63;63.49
72468;SHT30;60626;43.582;1.470;2023-02-15T00:39:17;12.64;62.95
72468;SHT30;60626;43.582;1.470;2023-02-15T00:41:45;12.64;63.87
72468;SHT30;60626;43.582;1.470;2023-02-15T00:44:13;12.67;63.56
72468;SHT30;60626;43.582;1.470;2023-02-15T00:46:39;12.63;63.63
72468;SHT30;60626;43.582;1.470;2023-02-15T00:49:06;12.63;63.67
72468;SHT30;60626;43.582;1.470;2023-02-15T00:51:33;12.66;63.83
72468;SHT30;60626;43.582;1.470;2023-02-15T00:53:59;12.66;64.15
72468;SHT30;60626;43.582;1.470;2023-02-15T00:56:26;12.63;63.87
72468;SHT30;60626;43.582;1.470;2023-02-15T00:58:55;12.63;63.81
72468;SHT30;60626;43.582;1.470;2023-02-15T01:01:22;12.67;63.88
72468;SHT30;60626;43.582;1.470;2023-02-15T01:03:49;12.67;63.49
72468;SHT30;60626;43.582;1.470;2023-02-15T01:06:17;12.69;63.66
72468;SHT30;60626;43.582;1.470;2023-02-15T01:08:45;12.72;63.62
72468;SHT30;60626;43.582;1.470;2023-02-15T01:11:15;12.70;63.51
72468;SHT30;60626;43.582;1.470;2023-02-15T01:14:08;12.72;63.44
72468;SHT30;60626;43.582;1.470;2023-02-15T01:16:34;12.72;63.66
72468;SHT30;60626;43.582;1.470;2023-02-15T01:19:01;12.73;63.46
72468;SHT30;60626;43.582;1.470;2023-02-15T01:21:29;12.72;62.87
72468;SHT30;60626;43.582;1.470;2023-02-15T01:23:56;12.67;63.64
72468;SHT30;60626;43.582;1.470;2023-02-15T01:26:23;12.69;63.84
72468;SHT30;60626;43.582;1.470;2023-02-15T01:28:49;12.66;63.67
72468;SHT30;60626;43.582;1.470;2023-02-15T01:31:18;12.64;63.81
72468;SHT30;60626;43.582;1.470;2023-02-15T01:33:46;12.62;63.97
72468;SHT30;60626;43.582;1.470;2023-02-15T01:36:13;12.60;64.46
72468;SHT30;60626;43.582;1.470;2023-02-15T01:38:40;12.59;64.34
72468;SHT30;60626;43.582;1.470;2023-02-15T01:41:08;12.60;63.87
72468;SHT30;60626;43.582;1.470;2023-02-15T01:43:53;12.59;63.26
72468;SHT30;60626;43.582;1.470;2023-02-15T01:46:24;12.57;63.73
72468;SHT30;60626;43.582;1.470;2023-02-15T01:49:28;12.57;63.64
72468;SHT30;60626;43.582;1.470;2023-02-15T01:51:55;12.57;64.24
72468;SHT30;60626;43.582;1.470;2023-02-15T01:54:25;12.56;64.43
72468;SHT30;60626;43.582;1.470;2023-02-15T01:57:00;12.55;64.82
72468;SHT30;60626;43.582;1.470;2023-02-15T01:59:30;12.53;64.23
72468;SHT30;60626;43.582;1.470;2023-02-15T02:01:59;12.48;64.51
72468;SHT30;60626;43.582;1.470;2023-02-15T02:04:41;12.45;64.88
72468;SHT30;60626;43.582;1.470;2023-02-15T02:07:12;12.46;64.94
72468;SHT30;60626;43.582;1.470;2023-02-15T02:09:40;12.48;64.66
72468;SHT30;60626;43.582;1.470;2023-02-15T02:12:08;12.52;64.18
72468;SHT30;60626;43.582;1.470;2023-02-15T02:14:36;12.52;64.79
72468;SHT30;60626;43.582;1.470;2023-02-15T02:17:14;12.50;64.80
72468;SHT30;60626;43.582;1.470;2023-02-15T02:25:33;12.60;64.82
72468;SHT30;60626;43.582;1.470;2023-02-15T02:47:02;12.57;64.74
72468;SHT30;60626;43.582;1.470;2023-02-15T02:49:38;12.56;64.95
72468;SHT30;60626;43.582;1.470;2023-02-15T02:52:33;12.55;64.68
72468;SHT30;60626;43.582;1.470;2023-02-15T02:54:55;12.55;65.04
72468;SHT30;60626;43.582;1.470;2023-02-15T02:57:23;12.56;64.55
72468;SHT30;60626;43.582;1.470;2023-02-15T02:59:51;12.52;65.31
72468;SHT30;60626;43.582;1.470;2023-02-15T03:02:25;12.52;65.39
72468;SHT30;60626;43.582;1.470;2023-02-15T03:04:58;12.52;65.33
72468;SHT30;60626;43.582;1.470;2023-02-15T03:07:31;12.52;65.44
72468;SHT30;60626;43.582;1.470;2023-02-15T03:09:59;12.53;65.22
72468;SHT30;60626;43.582;1.470;2023-02-15T03:12:30;12.52;65.16
72468;SHT30;60626;43.582;1.470;2023-02-15T03:15:08;12.55;65.17
72468;SHT30;60626;43.582;1.470;2023-02-15T03:17:40;12.52;65.24
72468;SHT30;60626;43.582;1.470;2023-02-15T03:20:13;12.52;65.41
72468;SHT30;60626;43.582;1.470;2023-02-15T03:22:58;12.50;65.35
72468;SHT30;60626;43.582;1.470;2023-02-15T03:25:44;12.48;65.39
72468;SHT30;60626;43.582;1.470;2023-02-15T03:28:23;12.50;65.49
72468;SHT30;60626;43.582;1.470;2023-02-15T03:30:55;12.45;65.12
72468;SHT30;60626;43.582;1.470;2023-02-15T03:33:23;12.44;65.91
72468;SHT30;60626;43.582;1.470;2023-02-15T03:36:06;12.39;65.75
72468;SHT30;60626;43.582;1.470;2023-02-15T03:38:47;12.36;65.63
72468;SHT30;60626;43.582;1.470;2023-02-15T03:41:18;12.36;65.05
72468;SHT30;60626;43.582;1.470;2023-02-15T03:44:04;12.36;65.52
72468;SHT30;60626;43.582;1.470;2023-02-15T03:49:34;12.39;65.27
72468;SHT30;60626;43.582;1.470;2023-02-15T03:52:04;12.35;65.98
72468;SHT30;60626;43.582;1.470;2023-02-15T03:54:34;12.38;65.81
72468;SHT30;60626;43.582;1.470;2023-02-15T03:57:21;12.38;65.67
72468;SHT30;60626;43.582;1.470;2023-02-15T04:00:24;12.35;65.67
72468;SHT30;60626;43.582;1.470;2023-02-15T04:03:33;12.35;65.70
72468;SHT30;60626;43.582;1.470;2023-02-15T04:06:03;12.38;65.62
72468;SHT30;60626;43.582;1.470;2023-02-15T04:08:30;12.41;65.80
72468;SHT30;60626;43.582;1.470;2023-02-15T04:11:15;12.36;65.95
72468;SHT30;60626;43.582;1.470;2023-02-15T04:13:42;12.36;65.77
72468;SHT30;60626;43.582;1.470;2023-02-15T04:16:08;12.38;65.65
72468;SHT30;60626;43.582;1.470;2023-02-15T04:18:37;12.34;65.71
72468;SHT30;60626;43.582;1.470;2023-02-15T04:21:25;12.31;65.82
72468;SHT30;60626;43.582;1.470;2023-02-15T04:24:11;12.28;65.97
72468;SHT30;60626;43.582;1.470;2023-02-15T04:26:57;12.25;65.82
72468;SHT30;60626;43.582;1.470;2023-02-15T04:29:25;12.25;66.00
72468;SHT30;60626;43.582;1.470;2023-02-15T04:31:53;12.28;65.92
72468;SHT30;60626;43.582;1.470;2023-02-15T04:34:20;12.28;65.57
72468;SHT30;60626;43.582;1.470;2023-02-15T04:36:46;12.28;65.99
72468;SHT30;60626;43.582;1.470;2023-02-15T04:39:14;12.28;66.16
72468;SHT30;60626;43.582;1.470;2023-02-15T04:41:41;12.24;65.93
72468;SHT30;60626;43.582;1.470;2023-02-15T04:44:08;12.24;65.96
72468;SHT30;60626;43.582;1.470;2023-02-15T04:46:35;12.22;65.96
72468;SHT30;60626;43.582;1.470;2023-02-15T04:49:01;12.22;65.90
72468;SHT30;60626;43.582;1.470;2023-02-15T04:51:29;12.22;66.29
72468;SHT30;60626;43.582;1.470;2023-02-15T04:53:55;12.18;65.97
72468;SHT30;60626;43.582;1.470;2023-02-15T04:56:23;12.21;66.07
72468;SHT30;60626;43.582;1.470;2023-02-15T04:58:49;12.24;66.04
72468;SHT30;60626;43.582;1.470;2023-02-15T05:01:17;12.25;65.93
72468;SHT30;60626;43.582;1.470;2023-02-15T05:03:44;12.26;65.93
72468;SHT30;60626;43.582;1.470;2023-02-15T05:06:10;12.26;65.94
72468;SHT30;60626;43.582;1.470;2023-02-15T05:08:37;12.26;65.84
72468;SHT30;60626;43.582;1.470;2023-02-15T05:11:03;12.28;65.97
72468;SHT30;60626;43.582;1.470;2023-02-15T05:13:30;12.25;66.18
72468;SHT30;60626;43.582;1.470;2023-02-15T05:15:57;12.20;66.06
72468;SHT30;60626;43.582;1.470;2023-02-15T05:18:23;12.20;65.97
72468;SHT30;60626;43.582;1.470;2023-02-15T05:20:50;12.20;66.13
72468;SHT30;60626;43.582;1.470;2023-02-15T05:23:17;12.17;66.01
72468;SHT30;60626;43.582;1.470;2023-02-15T05:25:48;12.18;66.34
72468;SHT30;60626;43.582;1.470;2023-02-15T05:28:34;12.17;66.29
72468;SHT30;60626;43.582;1.470;2023-02-15T05:33:34;12.20;66.17
72468;SHT30;60626;43.582;1.470;2023-02-15T05:36:01;12.21;66.03
72468;SHT30;60626;43.582;1.470;2023-02-15T05:38:29;12.21;66.12
72468;SHT30;60626;43.582;1.470;2023-02-15T05:40:56;12.18;66.21
72468;SHT30;60626;43.582;1.470;2023-02-15T05:43:23;12.17;66.22
72468;SHT30;60626;43.582;1.470;2023-02-15T05:45:51;12.15;66.06
72468;SHT30;60626;43.582;1.470;2023-02-15T05:48:20;12.14;66.36
72468;SHT30;60626;43.582;1.470;2023-02-15T05:51:06;12.14;65.61
72468;SHT30;60626;43.582;1.470;2023-02-15T05:53:37;12.11;66.50
72468;SHT30;60626;43.582;1.470;2023-02-15T05:56:06;12.14;65.48
72468;SHT30;60626;43.582;1.470;2023-02-15T05:58:36;12.11;66.33
72468;SHT30;60626;43.582;1.470;2023-02-15T06:01:11;12.13;66.65
72468;SHT30;60626;43.582;1.470;2023-02-15T06:03:38;12.14;66.63
72468;SHT30;60626;43.582;1.470;2023-02-15T06:06:05;12.13;66.68
72468;SHT30;60626;43.582;1.470;2023-02-15T06:08:34;12.15;66.81
72468;SHT30;60626;43.582;1.470;2023-02-15T06:11:01;12.15;66.37
72468;SHT30;60626;43.582;1.470;2023-02-15T06:13:28;12.17;66.41
72468;SHT30;60626;43.582;1.470;2023-02-15T06:15:55;12.17;66.59
72468;SHT30;60626;43.582;1.470;2023-02-15T06:18:21;12.18;66.17
72468;SHT30;60626;43.582;1.470;2023-02-15T06:20:48;12.17;66.90
72468;SHT30;60626;43.582;1.470;2023-02-15T06:23:15;12.11;66.87
72468;SHT30;60626;43.582;1.470;2023-02-15T06:25:42;12.13;66.79
72468;SHT30;60626;43.582;1.470;2023-02-15T06:28:10;12.10;66.74
72468;SHT30;60626;43.582;1.470;2023-02-15T06:30:36;12.07;67.15
72468;SHT30;60626;43.582;1.470;2023-02-15T06:33:03;12.05;66.52
72468;SHT30;60626;43.582;1.470;2023-02-15T06:35:30;12.04;67.20
72468;SHT30;60626;43.582;1.470;2023-02-15T06:37:56;12.05;66.83
72468;SHT30;60626;43.582;1.470;2023-02-15T06:40:23;12.04;66.89
72468;SHT30;60626;43.582;1.470;2023-02-15T06:42:49;12.02;67.11
72468;SHT30;60626;43.582;1.470;2023-02-15T06:45:16;12.02;67.20
72468;SHT30;60626;43.582;1.470;2023-02-15T06:47:43;12.04;67.40
72468;SHT30;60626;43.582;1.470;2023-02-15T06:50:10;12.02;67.10
72468;SHT30;60626;43.582;1.470;2023-02-15T06:52:36;11.99;67.60
72468;SHT30;60626;43.582;1.470;2023-02-15T06:55:03;11.97;67.25
72468;SHT30;60626;43.582;1.470;2023-02-15T06:57:30;12.02;67.41
72468;SHT30;60626;43.582;1.470;2023-02-15T06:59:57;11.98;67.25
72468;SHT30;60626;43.582;1.470;2023-02-15T07:02:25;11.99;67.13
72468;SHT30;60626;43.582;1.470;2023-02-15T07:04:51;11.98;67.49
72468;SHT30;60626;43.582;1.470;2023-02-15T07:07:18;11.97;67.47
72468;SHT30;60626;43.582;1.470;2023-02-15T07:09:45;11.99;67.70
72468;SHT30;60626;43.582;1.470;2023-02-15T07:12:11;11.98;67.61
72468;SHT30;60626;43.582;1.470;2023-02-15T07:14:57;12.01;67.28
72468;SHT30;60626;43.582;1.470;2023-02-15T07:17:25;12.05;67.22
72468;SHT30;60626;43.582;1.470;2023-02-15T07:20:04;12.10;67.82
72468;SHT30;60626;43.582;1.470;2023-02-15T07:22:31;12.15;67.51
72468;SHT30;60626;43.582;1.470;2023-02-15T07:25:00;12.18;67.57
72468;SHT30;60626;43.582;1.470;2023-02-15T07:27:27;12.20;67.21
72468;SHT30;60626;43.582;1.470;2023-02-15T07:29:53;12.24;66.87
72468;SHT30;60626;43.582;1.470;2023-02-15T07:32:20;12.24;67.59
72468;SHT30;60626;43.582;1.470;2023-02-15T07:34:47;12.32;67.06
72468;SHT30;60626;43.582;1.470;2023-02-15T07:37:13;12.44;66.83
72468;SHT30;60626;43.582;1.470;2023-02-15T07:39:40;12.50;66.17
72468;SHT30;60626;43.582;1.470;2023-02-15T07:42:07;12.59;66.57
72468;SHT30;60626;43.582;1.470;2023-02-15T07:44:33;12.67;66.52
72468;SHT30;60626;43.582;1.470;2023-02-15T07:47:00;12.73;66.36
72468;SHT30;60626;43.582;1.470;2023-02-15T07:49:26;12.80;66.09
72468;SHT30;60626;43.582;1.470;2023-02-15T07:51:53;12.84;66.22
72468;SHT30;60626;43.582;1.470;2023-02-15T07:54:20;12.86;65.92
72468;SHT30;60626;43.582;1.470;2023-02-15T07:56:46;12.83;65.99
72468;SHT30;60626;43.582;1.470;2023-02-15T07:59:13;12.81;65.96
72468;SHT30;60626;43.582;1.470;2023-02-15T08:01:40;12.81;65.92
72468;SHT30;60626;43.582;1.470;2023-02-15T08:04:07;12.76;66.09
72468;SHT30;60626;43.582;1.470;2023-02-15T08:06:36;12.75;66.37
72468;SHT30;60626;43.582;1.470;2023-02-15T08:09:05;12.73;66.11
72468;SHT30;60626;43.582;1.470;2023-02-15T08:11:37;12.75;66.14
72468;SHT30;60626;43.582;1.470;2023-02-15T08:14:11;12.76;66.52
72468;SHT30;60626;43.582;1.470;2023-02-15T08:21:41;12.84;66.06
72468;SHT30;60626;43.582;1.470;2023-02-15T08:24:09;12.86;66.26
72468;SHT30;60626;43.582;1.470;2023-02-15T08:26:37;12.91;66.13
72468;SHT30;60626;43.582;1.470;2023-02-15T08:29:08;12.91;65.91
72468;SHT30;60626;43.582;1.470;2023-02-15T08:31:35;13.00;66.07
72468;SHT30;60626;43.582;1.470;2023-02-15T08:34:04;12.99;66.05
72468;SHT30;60626;43.582;1.470;2023-02-15T08:36:32;12.99;65.93
72468;SHT30;60626;43.582;1.470;2023-02-15T08:39:01;13.03;65.33
72468;SHT30;60626;43.582;1.470;2023-02-15T08:41:30;13.01;65.72
72468;SHT30;60626;43.582;1.470;2023-02-15T08:43:59;13.06;65.95
72468;SHT30;60626;43.582;1.470;2023-02-15T08:46:31;13.15;65.61
72468;SHT30;60626;43.582;1.470;2023-02-15T08:48:58;13.27;65.45
72468;SHT30;60626;43.582;1.470;2023-02-15T08:51:27;13.35;65.24
72468;SHT30;60626;43.582;1.470;2023-02-15T08:53:57;13.51;65.16
72468;SHT30;60626;43.582;1.470;2023-02-15T08:56:27;13.74;64.68
72468;SHT30;60626;43.582;1.470;2023-02-15T08:58:54;13.99;63.90
72468;SHT30;60626;43.582;1.470;2023-02-15T09:01:25;14.17;63.60
72468;SHT30;60626;43.582;1.470;2023-02-15T09:03:56;14.35;62.78
72468;SHT30;60626;43.582;1.470;2023-02-15T09:06:23;14.48;62.60
72468;SHT30;60626;43.582;1.470;2023-02-15T09:08:50;14.65;61.68
72468;SHT30;60626;43.582;1.470;2023-02-15T09:11:20;14.89;61.73
72468;SHT30;60626;43.582;1.470;2023-02-15T09:13:58;15.10;61.13
72468;SHT30;60626;43.582;1.470;2023-02-15T09:16:27;15.23;60.01
72468;SHT30;60626;43.582;1.470;2023-02-15T09:18:55;15.32;60.06
72468;SHT30;60626;43.582;1.470;2023-02-15T09:21:25;15.28;59.56
72468;SHT30;60626;43.582;1.470;2023-02-15T09:23:56;15.32;59.55
72468;SHT30;60626;43.582;1.470;2023-02-15T09:26:24;15.35;59.63
72468;SHT30;60626;43.582;1.470;2023-02-15T09:28:53;15.31;59.39
72468;SHT30;60626;43.582;1.470;2023-02-15T09:31:24;15.37;59.83
72468;SHT30;60626;43.582;1.470;2023-02-15T09:33:52;15.48;59.77
72468;SHT30;60626;43.582;1.470;2023-02-15T09:36:26;15.62;59.60
72468;SHT30;60626;43.582;1.470;2023-02-15T09:38:58;15.78;58.73
72468;SHT30;60626;43.582;1.470;2023-02-15T09:50:28;16.31;57.11
72468;SHT30;60626;43.582;1.470;2023-02-15T09:56:06;16.13;56.85
72468;SHT30;60626;43.582;1.470;2023-02-15T10:10:03;16.03;56.88
72468;SHT30;60626;43.582;1.470;2023-02-15T10:26:15;16.68;55.67
72468;SHT30;60626;43.582;1.470;2023-02-15T10:28:51;16.86;55.23
72468;SHT30;60626;43.582;1.470;2023-02-15T10:34:15;16.90;54.72
72468;SHT30;60626;43.582;1.470;2023-02-15T10:50:49;17.26;52.46
72468;SHT30;60626;43.582;1.470;2023-02-15T10:56:25;17.33;52.50
72468;SHT30;60626;43.582;1.470;2023-02-15T11:04:59;17.24;52.32
72468;SHT30;60626;43.582;1.470;2023-02-15T11:07:35;17.22;52.22
72468;SHT30;60626;43.582;1.470;2023-02-15T11:10:14;17.17;52.86
72468;SHT30;60626;43.582;1.470;2023-02-15T11:12:49;17.23;52.36
72468;SHT30;60626;43.582;1.470;2023-02-15T11:15:39;17.19;52.05
72468;SHT30;60626;43.582;1.470;2023-02-15T11:18:16;17.17;52.46
72468;SHT30;60626;43.582;1.470;2023-02-15T11:21:09;17.22;52.07
72468;SHT30;60626;43.582;1.470;2023-02-15T11:23:43;17.13;50.86
72468;SHT30;60626;43.582;1.470;2023-02-15T11:26:37;17.09;50.50
72468;SHT30;60626;43.582;1.470;2023-02-15T11:29:32;17.12;51.12
72468;SHT30;60626;43.582;1.470;2023-02-15T11:34:37;17.19;50.60
72468;SHT30;60626;43.582;1.470;2023-02-15T11:37:10;17.24;51.21
72468;SHT30;60626;43.582;1.470;2023-02-15T11:39:37;17.22;51.00
72468;SHT30;60626;43.582;1.470;2023-02-15T11:42:11;17.23;51.04
72468;SHT30;60626;43.582;1.470;2023-02-15T11:45:04;17.22;50.73
72468;SHT30;60626;43.582;1.470;2023-02-15T11:47:40;17.16;49.91
72468;SHT30;60626;43.582;1.470;2023-02-15T11:50:28;17.16;50.68
72468;SHT30;60626;43.582;1.470;2023-02-15T11:53:01;17.12;51.30
72468;SHT30;60626;43.582;1.470;2023-02-15T11:55:29;17.12;51.08
72468;SHT30;60626;43.582;1.470;2023-02-15T11:58:05;17.15;51.64
72468;SHT30;60626;43.582;1.470;2023-02-15T12:00:42;17.05;51.84
72468;SHT30;60626;43.582;1.470;2023-02-15T12:03:15;16.93;51.37
72468;SHT30;60626;43.582;1.470;2023-02-15T12:05:45;16.85;50.91
72468;SHT30;60626;43.582;1.470;2023-02-15T12:08:20;16.83;51.56
72468;SHT30;60626;43.582;1.470;2023-02-15T12:13:23;16.73;51.70
72468;SHT30;60626;43.582;1.470;2023-02-15T12:15:52;16.72;51.20
72468;SHT30;60626;43.582;1.470;2023-02-15T12:18:40;16.69;50.62
72468;SHT30;60626;43.582;1.470;2023-02-15T12:21:12;16.65;50.61
72468;SHT30;60626;43.582;1.470;2023-02-15T12:23:48;16.58;50.38
72468;SHT30;60626;43.582;1.470;2023-02-15T12:26:26;16.57;50.11
72468;SHT30;60626;43.582;1.470;2023-02-15T12:28:54;16.54;50.91
72468;SHT30;60626;43.582;1.470;2023-02-15T12:31:43;16.54;50.89
72468;SHT30;60626;43.582;1.470;2023-02-15T12:34:23;16.54;50.86
72468;SHT30;60626;43.582;1.470;2023-02-15T12:36:53;16.58;51.29
72468;SHT30;60626;43.582;1.470;2023-02-15T12:39:31;16.57;51.52
72468;SHT30;60626;43.582;1.470;2023-02-15T12:41:59;16.57;51.70
72468;SHT30;60626;43.582;1.470;2023-02-15T12:44:35;16.65;51.47
72468;SHT30;60626;43.582;1.470;2023-02-15T12:47:17;16.65;51.25
72468;SHT30;60626;43.582;1.470;2023-02-15T12:50:05;16.67;51.10
72468;SHT30;60626;43.582;1.470;2023-02-15T12:52:37;16.65;51.18
72468;SHT30;60626;43.582;1.470;2023-02-15T12:55:32;16.61;50.61
72468;SHT30;60626;43.582;1.470;2023-02-15T13:00:42;16.54;51.70
72468;SHT30;60626;43.582;1.470;2023-02-15T13:03:20;16.57;51.99
72468;SHT30;60626;43.582;1.470;2023-02-15T13:05:50;16.61;51.96
72468;SHT30;60626;43.582;1.470;2023-02-15T13:08:27;16.61;50.76
72468;SHT30;60626;43.582;1.470;2023-02-15T13:13:31;16.52;50.68
72468;SHT30;60626;43.582;1.470;2023-02-15T13:16:04;16.47;51.02
72468;SHT30;60626;43.582;1.470;2023-02-15T13:18:42;16.44;51.32
72468;SHT30;60626;43.582;1.470;2023-02-15T13:21:13;16.43;50.29
72468;SHT30;60626;43.582;1.470;2023-02-15T13:23:45;16.41;51.29
72468;SHT30;60626;43.582;1.470;2023-02-15T13:26:19;16.44;50.31
72468;SHT30;60626;43.582;1.470;2023-02-15T13:28:49;16.44;50.26
72468;SHT30;60626;43.582;1.470;2023-02-15T13:31:23;16.44;50.78
72468;SHT30;60626;43.582;1.470;2023-02-15T13:33:58;16.48;50.52
72468;SHT30;60626;43.582;1.470;2023-02-15T13:39:22;16.50;51.12
72468;SHT30;60626;43.582;1.470;2023-02-15T13:42:14;16.52;51.12
72468;SHT30;60626;43.582;1.470;2023-02-15T13:53:34;16.65;50.57
72468;SHT30;60626;43.582;1.470;2023-02-15T14:01:47;16.71;50.57
72468;SHT30;60626;43.582;1.470;2023-02-15T14:04:49;16.73;50.58
72468;SHT30;60626;43.582;1.470;2023-02-15T14:18:46;16.71;49.72
72468;SHT30;60626;43.582;1.470;2023-02-15T14:29:50;16.72;48.69
72468;SHT30;60626;43.582;1.470;2023-02-15T14:35:02;16.78;48.45
72468;SHT30;60626;43.582;1.470;2023-02-15T14:40:22;16.83;47.87
72468;SHT30;60626;43.582;1.470;2023-02-15T14:44:13;16.85;48.71
72468;SHT30;60626;43.582;1.470;2023-02-15T14:46:34;16.83;47.71
72468;SHT30;60626;43.582;1.470;2023-02-15T14:49:15;16.82;48.23
72468;SHT30;60626;43.582;1.470;2023-02-15T15:07:23;16.75;47.72
72468;SHT30;60626;43.582;1.470;2023-02-15T15:10:31;16.79;47.73
72468;SHT30;60626;43.582;1.470;2023-02-15T15:12:56;16.83;48.01
72468;SHT30;60626;43.582;1.470;2023-02-15T15:17:57;16.88;48.45
72468;SHT30;60626;43.582;1.470;2023-02-15T15:31:08;16.99;48.41
72468;SHT30;60626;43.582;1.470;2023-02-15T15:37:11;16.99;48.23
72468;SHT30;60626;43.582;1.470;2023-02-15T15:42:22;16.89;47.01
72468;SHT30;60626;43.582;1.470;2023-02-15T15:50:33;16.81;47.74
72468;SHT30;60626;43.582;1.470;2023-02-15T15:53:02;16.78;46.91
72468;SHT30;60626;43.582;1.470;2023-02-15T15:55:30;16.78;47.33
72468;SHT30;60626;43.582;1.470;2023-02-15T15:58:02;16.75;47.45
72468;SHT30;60626;43.582;1.470;2023-02-15T16:00:35;16.65;46.62
72468;SHT30;60626;43.582;1.470;2023-02-15T16:03:03;16.60;47.72
72468;SHT30;60626;43.582;1.470;2023-02-15T16:05:38;16.51;47.83
72468;SHT30;60626;43.582;1.470;2023-02-15T16:08:05;16.44;47.92
72468;SHT30;60626;43.582;1.470;2023-02-15T16:10:33;16.43;48.37
72468;SHT30;60626;43.582;1.470;2023-02-15T16:13:01;16.38;48.72
72468;SHT30;60626;43.582;1.470;2023-02-15T16:15:36;16.37;49.14
72468;SHT30;60626;43.582;1.470;2023-02-15T16:18:13;16.33;49.14
72468;SHT30;60626;43.582;1.470;2023-02-15T16:20:49;16.30;49.15
72468;SHT30;60626;43.582;1.470;2023-02-15T16:26:32;16.28;49.51
72468;SHT30;60626;43.582;1.470;2023-02-15T16:29:15;16.27;49.49
72468;SHT30;60626;43.582;1.470;2023-02-15T16:31:42;16.27;49.65
72468;SHT30;60626;43.582;1.470;2023-02-15T16:34:16;16.27;49.76
72468;SHT30;60626;43.582;1.470;2023-02-15T16:36:44;16.30;50.04
72468;SHT30;60626;43.582;1.470;2023-02-15T16:39:18;16.24;50.31
72468;SHT30;60626;43.582;1.470;2023-02-15T16:41:45;16.17;50.63
72468;SHT30;60626;43.582;1.470;2023-02-15T16:44:18;16.18;50.69
72468;SHT30;60626;43.582;1.470;2023-02-15T16:46:53;16.18;50.77
72468;SHT30;60626;43.582;1.470;2023-02-15T16:49:26;16.13;50.84
72468;SHT30;60626;43.582;1.470;2023-02-15T16:52:01;16.16;50.75
72468;SHT30;60626;43.582;1.470;2023-02-15T16:54:30;16.07;50.69
72468;SHT30;60626;43.582;1.470;2023-02-15T16:56:58;16.06;50.80
72468;SHT30;60626;43.582;1.470;2023-02-15T17:02:05;16.00;50.99
72468;SHT30;60626;43.582;1.470;2023-02-15T17:04:32;15.96;51.04
72468;SHT30;60626;43.582;1.470;2023-02-15T17:07:17;15.92;51.33
72468;SHT30;60626;43.582;1.470;2023-02-15T17:09:55;15.86;51.40
72468;SHT30;60626;43.582;1.470;2023-02-15T17:20:40;15.68;52.30
72468;SHT30;60626;43.582;1.470;2023-02-15T17:23:46;15.66;52.40
72468;SHT30;60626;43.582;1.470;2023-02-15T17:26:23;15.61;52.59
72468;SHT30;60626;43.582;1.470;2023-02-15T17:28:52;15.57;52.76
72468;SHT30;60626;43.582;1.470;2023-02-15T17:31:20;15.58;52.71
72468;SHT30;60626;43.582;1.470;2023-02-15T17:33:47;15.51;52.85
72468;SHT30;60626;43.582;1.470;2023-02-15T17:36:19;15.54;53.01
72468;SHT30;60626;43.582;1.470;2023-02-15T17:41:29;15.55;53.38
72468;SHT30;60626;43.582;1.470;2023-02-15T17:43:57;15.48;53.08
72468;SHT30;60626;43.582;1.470;2023-02-15T17:46:24;15.48;53.49
72468;SHT30;60626;43.582;1.470;2023-02-15T17:48:53;15.51;53.56
72468;SHT30;60626;43.582;1.470;2023-02-15T17:51:21;15.55;53.57
72468;SHT30;60626;43.582;1.470;2023-02-15T17:53:48;15.54;53.63
72468;SHT30;60626;43.582;1.470;2023-02-15T17:56:35;15.57;53.41
72468;SHT30;60626;43.582;1.470;2023-02-15T17:59:02;15.55;53.58
72468;SHT30;60626;43.582;1.470;2023-02-15T18:01:44;15.52;53.68
72468;SHT30;60626;43.582;1.470;2023-02-15T18:04:31;15.52;53.80
72468;SHT30;60626;43.582;1.470;2023-02-15T18:07:18;15.42;53.89
72468;SHT30;60626;43.582;1.470;2023-02-15T18:10:13;15.34;54.05
72468;SHT30;60626;43.582;1.470;2023-02-15T18:12:58;15.31;54.15
72468;SHT30;60626;43.582;1.470;2023-02-15T18:15:25;15.27;54.20
72468;SHT30;60626;43.582;1.470;2023-02-15T18:17:52;15.19;54.32
72468;SHT30;60626;43.582;1.470;2023-02-15T18:20:32;15.16;54.41
72468;SHT30;60626;43.582;1.470;2023-02-15T18:22:59;15.10;54.44
72468;SHT30;60626;43.582;1.470;2023-02-15T18:25:27;15.04;54.69
72468;SHT30;60626;43.582;1.470;2023-02-15T18:27:54;15.03;54.58
72468;SHT30;60626;43.582;1.470;2023-02-15T18:30:23;14.96;54.60
72468;SHT30;60626;43.582;1.470;2023-02-15T18:32:54;14.94;54.72
72468;SHT30;60626;43.582;1.470;2023-02-15T18:35:23;14.87;55.02
72468;SHT30;60626;43.582;1.470;2023-02-15T18:37:52;14.79;55.37
72468;SHT30;60626;43.582;1.470;2023-02-15T18:40:22;14.75;55.14
72468;SHT30;60626;43.582;1.470;2023-02-15T18:42:50;14.68;55.71
72468;SHT30;60626;43.582;1.470;2023-02-15T18:45:22;14.61;55.58
72468;SHT30;60626;43.582;1.470;2023-02-15T18:47:50;14.58;55.68
72468;SHT30;60626;43.582;1.470;2023-02-15T18:50:19;14.54;55.86
72468;SHT30;60626;43.582;1.470;2023-02-15T18:52:47;14.52;55.91
72468;SHT30;60626;43.582;1.470;2023-02-15T18:55:24;14.52;55.88
72468;SHT30;60626;43.582;1.470;2023-02-15T18:57:53;14.54;55.93
72468;SHT30;60626;43.582;1.470;2023-02-15T19:00:26;14.55;55.84
72468;SHT30;60626;43.582;1.470;2023-02-15T19:02:56;14.54;56.00
72468;SHT30;60626;43.582;1.470;2023-02-15T19:05:24;14.55;55.96
72468;SHT30;60626;43.582;1.470;2023-02-15T19:07:53;14.55;56.08
72468;SHT30;60626;43.582;1.470;2023-02-15T19:10:26;14.55;56.00
72468;SHT30;60626;43.582;1.470;2023-02-15T19:12:53;14.51;55.94
72468;SHT30;60626;43.582;1.470;2023-02-15T19:15:24;14.45;56.04
72468;SHT30;60626;43.582;1.470;2023-02-15T19:17:51;14.41;56.27
72468;SHT30;60626;43.582;1.470;2023-02-15T19:20:34;14.31;56.61
72468;SHT30;60626;43.582;1.470;2023-02-15T19:23:02;14.34;56.59
72468;SHT30;60626;43.582;1.470;2023-02-15T19:25:33;14.30;56.79
72468;SHT30;60626;43.582;1.470;2023-02-15T19:28:10;14.32;56.72
72468;SHT30;60626;43.582;1.470;2023-02-15T19:30:39;14.30;56.68